createdAt,value
2022-09-22T00:02:37.465Z,99.90
2022-09-22T00:05:25.263Z,99.90
2022-09-22T00:08:13.040Z,99.90
2022-09-22T00:11:01.821Z,99.90
2022-09-22T00:13:51.626Z,99.90
2022-09-22T00:16:40.374Z,99.90
2022-09-22T00:19:30.592Z,99.90
2022-09-22T00:22:18.570Z,99.90
2022-09-22T00:25:06.943Z,99.90
2022-09-22T00:27:56.209Z,99.90
2022-09-22T00:30:44.010Z,99.90
2022-09-22T00:33:31.832Z,99.90
2022-09-22T00:36:22.593Z,99.90
2022-09-22T00:39:10.637Z,99.90
2022-09-22T00:41:58.510Z,99.90
2022-09-22T00:44:46.360Z,99.90
2022-09-22T00:47:35.809Z,99.90
2022-09-22T00:50:24.926Z,99.90
2022-09-22T00:53:15.804Z,99.90
2022-09-22T00:56:05.070Z,99.90
2022-09-22T00:58:53.843Z,99.90
2022-09-22T01:01:41.813Z,99.90
2022-09-22T01:04:29.820Z,99.90
2022-09-22T01:07:17.701Z,99.90
2022-09-22T01:10:07.691Z,99.90
2022-09-22T01:12:59.953Z,99.90
2022-09-22T01:15:50.619Z,99.90
2022-09-22T01:18:43.879Z,99.90
2022-09-22T01:21:36.920Z,99.90
2022-09-22T01:24:34.945Z,99.90
2022-09-22T01:27:37.675Z,99.90
2022-09-22T01:30:30.645Z,99.90
2022-09-22T01:33:23.207Z,99.90
2022-09-22T01:36:16.331Z,99.90
2022-09-22T01:39:07.534Z,99.90
2022-09-22T01:41:59.301Z,99.90
2022-09-22T01:44:50.807Z,99.90
2022-09-22T01:47:42.021Z,99.90
2022-09-22T01:50:31.090Z,99.90
2022-09-22T01:53:20.530Z,99.90
2022-09-22T01:56:10.303Z,99.90
2022-09-22T01:59:00.144Z,99.90
2022-09-22T02:01:51.090Z,99.90
2022-09-22T02:04:43.389Z,99.90
2022-09-22T02:07:34.246Z,99.90
2022-09-22T02:10:25.949Z,99.90
2022-09-22T02:13:13.967Z,99.90
2022-09-22T02:16:02.031Z,99.90
2022-09-22T02:18:51.928Z,99.90
2022-09-22T02:21:41.887Z,99.90
2022-09-22T02:24:30.934Z,99.90
2022-09-22T02:27:25.528Z,99.90
2022-09-22T02:30:13.723Z,99.90
2022-09-22T02:33:02.138Z,99.90
2022-09-22T02:35:52.857Z,99.90
2022-09-22T02:38:45.550Z,99.90
2022-09-22T02:41:36.703Z,99.90
2022-09-22T02:44:26.381Z,99.90
2022-09-22T02:47:15.572Z,99.90
2022-09-22T02:50:05.361Z,99.90
2022-09-22T02:52:54.055Z,99.90
2022-09-22T02:55:43.723Z,99.90
2022-09-22T02:58:31.617Z,99.90
2022-09-22T03:01:19.441Z,99.90
2022-09-22T03:04:07.394Z,99.90
2022-09-22T03:06:55.244Z,99.90
2022-09-22T03:09:43.665Z,99.90
2022-09-22T03:12:32.855Z,99.90
2022-09-22T03:15:23.832Z,99.90
2022-09-22T03:18:15.062Z,99.90
2022-09-22T03:21:02.897Z,99.90
2022-09-22T03:23:50.714Z,99.90
2022-09-22T03:26:38.685Z,99.90
2022-09-22T03:29:27.911Z,99.90
2022-09-22T03:32:15.718Z,99.90
2022-09-22T03:35:03.662Z,99.90
2022-09-22T03:37:51.413Z,99.90
2022-09-22T03:40:39.229Z,99.90
2022-09-22T03:43:27.088Z,99.90
2022-09-22T03:46:16.443Z,99.90
2022-09-22T03:49:04.483Z,99.90
2022-09-22T03:51:52.264Z,99.90
2022-09-22T03:54:40.046Z,99.90
2022-09-22T03:57:27.879Z,99.90
2022-09-22T04:00:17.023Z,99.90
2022-09-22T04:03:06.184Z,99.90
2022-09-22T04:05:53.994Z,99.90
2022-09-22T04:08:41.887Z,99.90
2022-09-22T04:11:29.653Z,99.90
2022-09-22T04:14:17.428Z,99.90
2022-09-22T04:17:05.944Z,99.90
2022-09-22T04:19:55.899Z,99.90
2022-09-22T04:22:43.692Z,99.90
2022-09-22T04:25:32.035Z,99.90
2022-09-22T04:28:20.051Z,99.90
2022-09-22T04:31:07.900Z,99.90
2022-09-22T04:33:55.782Z,99.90
2022-09-22T04:36:44.924Z,99.90
2022-09-22T04:39:32.785Z,99.90
2022-09-22T04:42:20.680Z,99.90
2022-09-22T04:45:08.957Z,99.90
2022-09-22T04:47:56.756Z,99.90
2022-09-22T04:50:47.980Z,99.90
2022-09-22T04:53:37.579Z,99.90
2022-09-22T04:56:25.354Z,99.90
2022-09-22T04:59:13.166Z,99.90
2022-09-22T05:02:01.487Z,99.90
2022-09-22T05:04:49.286Z,99.90
2022-09-22T05:07:37.089Z,99.90
2022-09-22T05:10:27.271Z,99.90
2022-09-22T05:13:15.523Z,99.90
2022-09-22T05:16:05.305Z,99.90
2022-09-22T05:18:53.175Z,99.90
2022-09-22T05:21:40.942Z,99.90
2022-09-22T05:24:28.786Z,99.90
2022-09-22T05:27:18.652Z,99.90
2022-09-22T05:30:06.958Z,99.90
2022-09-22T05:32:54.770Z,99.90
2022-09-22T05:35:42.674Z,99.90
2022-09-22T05:38:31.006Z,99.90
2022-09-22T05:41:18.827Z,99.90
2022-09-22T05:44:08.086Z,99.90
2022-09-22T05:46:55.953Z,99.90
2022-09-22T05:49:43.911Z,99.90
2022-09-22T05:52:31.705Z,99.90
2022-09-22T05:55:19.658Z,99.90
2022-09-22T05:58:09.275Z,99.90
2022-09-22T06:00:58.957Z,99.90
2022-09-22T06:03:46.813Z,99.90
2022-09-22T06:06:34.613Z,99.90
2022-09-22T06:09:22.496Z,99.90
2022-09-22T06:12:10.253Z,99.90
2022-09-22T06:14:58.104Z,99.90
2022-09-22T06:17:47.291Z,99.90
2022-09-22T06:20:35.214Z,99.90
2022-09-22T06:23:23.311Z,99.90
2022-09-22T06:26:11.173Z,99.90
2022-09-22T06:28:59.044Z,99.90
2022-09-22T06:31:48.881Z,99.90
2022-09-22T06:34:38.164Z,99.90
2022-09-22T06:37:26.037Z,99.90
2022-09-22T06:40:17.329Z,99.90
2022-09-22T06:43:07.575Z,99.90
2022-09-22T06:46:00.218Z,99.90
2022-09-22T06:48:50.147Z,99.90
2022-09-22T06:51:39.319Z,99.90
2022-09-22T06:54:27.116Z,99.90
2022-09-22T06:57:14.885Z,99.90
2022-09-22T07:00:03.696Z,99.90
2022-09-22T07:02:51.493Z,99.90
2022-09-22T07:05:39.517Z,99.90
2022-09-22T07:08:29.371Z,99.90
2022-09-22T07:11:19.335Z,99.90
2022-09-22T07:14:07.354Z,99.90
2022-09-22T07:16:55.265Z,99.90
2022-09-22T07:19:43.110Z,99.90
2022-09-22T07:22:30.939Z,99.90
2022-09-22T07:25:20.132Z,99.90
2022-09-22T07:28:13.639Z,99.90
2022-09-22T07:31:03.835Z,99.90
2022-09-22T07:33:53.269Z,99.90
2022-09-22T07:36:41.607Z,99.90
2022-09-22T07:39:29.423Z,99.90
2022-09-22T07:42:20.006Z,99.90
2022-09-22T07:45:15.037Z,99.90
2022-09-22T07:48:20.542Z,99.90
2022-09-22T07:51:14.266Z,99.90
2022-09-22T07:54:07.456Z,99.90
2022-09-22T07:56:58.241Z,99.90
2022-09-22T07:59:47.811Z,99.90
2022-09-22T08:02:35.619Z,99.90
2022-09-22T08:05:24.258Z,99.90
2022-09-22T08:08:12.344Z,99.90
2022-09-22T08:11:04.120Z,99.90
2022-09-22T08:13:53.630Z,99.90
2022-09-22T08:16:42.727Z,99.90
2022-09-22T08:19:32.108Z,99.90
2022-09-22T08:22:20.102Z,99.90
2022-09-22T08:25:12.344Z,99.90
2022-09-22T08:28:01.454Z,99.90
2022-09-22T08:30:49.679Z,99.90
2022-09-22T08:33:40.676Z,99.90
2022-09-22T08:36:28.706Z,99.90
2022-09-22T08:39:17.170Z,99.90
2022-09-22T08:42:09.606Z,99.90
2022-09-22T08:45:00.597Z,99.90
2022-09-22T08:48:07.090Z,99.90
2022-09-22T08:51:16.087Z,99.90
2022-09-22T08:54:04.432Z,99.90
2022-09-22T08:56:57.494Z,99.90
2022-09-22T08:59:52.120Z,99.90
2022-09-22T09:02:42.110Z,99.90
2022-09-22T09:05:44.938Z,99.90
2022-09-22T09:08:43.175Z,99.90
2022-09-22T09:11:38.969Z,99.90
2022-09-22T09:14:35.104Z,99.90
2022-09-22T09:17:25.620Z,99.90
2022-09-22T09:20:18.198Z,99.90
2022-09-22T09:23:10.074Z,99.90
2022-09-22T09:26:00.329Z,99.90
2022-09-22T09:28:50.360Z,99.90
2022-09-22T09:31:41.236Z,99.90
2022-09-22T09:34:30.002Z,99.90
2022-09-22T09:37:19.115Z,99.90
2022-09-22T09:40:08.870Z,99.90
2022-09-22T09:43:03.300Z,99.90
2022-09-22T09:45:56.329Z,99.90
2022-09-22T09:48:49.079Z,99.90
2022-09-22T09:51:41.095Z,99.90
2022-09-22T09:54:29.231Z,99.90
2022-09-22T09:57:18.101Z,99.90
2022-09-22T10:00:35.037Z,99.90
2022-09-22T10:03:29.220Z,99.90
2022-09-22T10:06:24.514Z,99.90
2022-09-22T10:09:12.326Z,99.90
2022-09-22T10:12:00.677Z,99.90
2022-09-22T10:14:50.260Z,99.90
2022-09-22T10:17:42.720Z,99.90
2022-09-22T10:20:31.692Z,99.90
2022-09-22T10:23:21.251Z,99.90
2022-09-22T10:26:17.635Z,99.90
2022-09-22T10:29:07.746Z,99.90
2022-09-22T10:32:07.510Z,99.90
2022-09-22T10:34:59.505Z,99.90
2022-09-22T10:37:47.774Z,99.90
2022-09-22T10:40:36.937Z,99.90
2022-09-22T10:43:35.483Z,99.90
2022-09-22T10:46:29.981Z,99.90
2022-09-22T10:49:25.146Z,99.90
2022-09-22T10:52:16.455Z,99.90
2022-09-22T10:55:10.307Z,99.90
2022-09-22T10:58:07.038Z,99.90
2022-09-22T11:01:01.073Z,99.90
2022-09-22T11:03:59.408Z,99.90
2022-09-22T11:07:11.747Z,99.90
2022-09-22T11:10:21.921Z,99.90
2022-09-22T11:13:16.988Z,99.90
2022-09-22T11:16:14.860Z,99.90
2022-09-22T11:19:08.871Z,99.90
2022-09-22T11:22:05.722Z,99.90
2022-09-22T11:25:03.741Z,99.90
2022-09-22T11:28:00.009Z,99.90
2022-09-22T11:30:50.955Z,99.90
2022-09-22T11:33:44.584Z,99.90
2022-09-22T11:36:39.719Z,99.90
2022-09-22T11:39:39.135Z,99.90
2022-09-22T11:42:31.618Z,99.90
2022-09-22T11:45:26.628Z,99.90
2022-09-22T11:48:23.161Z,99.90
2022-09-22T11:51:16.293Z,99.90
2022-09-22T11:54:09.530Z,99.90
2022-09-22T11:57:00.315Z,99.90
2022-09-22T11:59:52.182Z,99.90
2022-09-22T12:02:46.498Z,99.90
2022-09-22T12:05:39.317Z,99.90
2022-09-22T12:08:30.308Z,99.90
2022-09-22T12:11:20.408Z,99.90
2022-09-22T12:14:10.011Z,99.90
2022-09-22T12:16:59.457Z,99.90
2022-09-22T12:19:54.474Z,99.90
2022-09-22T12:22:50.863Z,99.90
2022-09-22T12:25:49.402Z,99.90
2022-09-22T12:28:41.947Z,99.90
2022-09-22T12:31:34.853Z,99.90
2022-09-22T12:34:23.820Z,99.90
2022-09-22T12:37:14.400Z,99.90
2022-09-22T12:40:06.596Z,99.90
2022-09-22T12:42:55.120Z,99.90
2022-09-22T12:45:43.583Z,99.90
2022-09-22T12:48:32.453Z,99.90
2022-09-22T12:51:38.293Z,99.90
2022-09-22T12:54:47.223Z,99.90
2022-09-22T12:57:44.957Z,99.90
2022-09-22T13:00:36.507Z,99.90
2022-09-22T13:03:42.550Z,99.90
2022-09-22T13:06:48.993Z,99.90
2022-09-22T13:09:36.978Z,99.90
2022-09-22T13:12:27.435Z,99.90
2022-09-22T13:15:18.798Z,99.90
2022-09-22T13:18:27.692Z,99.90
2022-09-22T13:21:23.876Z,99.90
2022-09-22T13:24:19.508Z,99.90
2022-09-22T13:27:08.394Z,99.90
2022-09-22T13:29:59.450Z,99.90
2022-09-22T13:32:52.112Z,99.90
2022-09-22T13:35:41.380Z,99.90
2022-09-22T13:38:29.800Z,99.90
2022-09-22T13:41:19.427Z,99.90
2022-09-22T13:44:10.724Z,99.90
2022-09-22T13:46:59.873Z,99.90
2022-09-22T13:49:51.755Z,99.90
2022-09-22T13:52:40.826Z,99.90
2022-09-22T13:55:31.120Z,99.90
2022-09-22T13:58:22.701Z,99.90
2022-09-22T14:01:14.820Z,99.90
2022-09-22T14:04:03.380Z,99.90
2022-09-22T14:06:54.241Z,99.90
2022-09-22T14:09:42.310Z,99.90
2022-09-22T14:12:30.529Z,99.90
2022-09-22T14:15:33.632Z,99.90
2022-09-22T14:18:26.399Z,99.90
2022-09-22T14:21:14.352Z,99.90
2022-09-22T14:24:03.605Z,99.90
2022-09-22T14:26:52.323Z,99.90
2022-09-22T14:29:40.732Z,99.90
2022-09-22T14:32:33.065Z,99.90
2022-09-22T14:35:23.491Z,99.90
2022-09-22T14:38:21.738Z,99.90
2022-09-22T14:41:23.462Z,99.90
2022-09-22T14:44:26.641Z,99.90
2022-09-22T14:47:28.117Z,99.90
2022-09-22T14:50:18.805Z,99.90
2022-09-22T14:53:08.167Z,99.90
2022-09-22T14:56:00.937Z,99.90
2022-09-22T14:58:52.341Z,99.90
2022-09-22T15:01:57.829Z,99.00
2022-09-22T15:04:49.437Z,99.50
2022-09-22T15:07:38.243Z,99.40
2022-09-22T15:10:27.850Z,99.50
2022-09-22T15:13:19.958Z,97.50
2022-09-22T15:16:22.722Z,99.50
2022-09-22T15:19:13.231Z,99.90
2022-09-22T15:22:01.885Z,99.30
2022-09-22T15:24:49.721Z,99.90
2022-09-22T15:27:40.637Z,99.20
2022-09-22T15:30:32.178Z,98.80
2022-09-22T15:33:20.456Z,99.40
2022-09-22T15:36:13.575Z,99.20
2022-09-22T15:39:02.329Z,99.20
2022-09-22T15:41:50.652Z,99.00
2022-09-22T15:44:38.774Z,99.90
2022-09-22T15:47:26.799Z,99.50
2022-09-22T15:50:15.212Z,98.40
2022-09-22T15:53:04.441Z,97.80
2022-09-22T15:55:52.509Z,98.30
2022-09-22T15:58:41.273Z,98.00
2022-09-22T16:01:29.535Z,97.80
2022-09-22T16:04:17.908Z,97.80
2022-09-22T16:07:08.286Z,96.50
2022-09-22T16:09:57.536Z,97.40
2022-09-22T16:12:47.445Z,96.50
2022-09-22T16:15:35.287Z,96.20
2022-09-22T16:18:23.281Z,95.60
2022-09-22T16:21:19.571Z,96.80
2022-09-22T16:24:09.481Z,95.90
2022-09-22T16:26:59.696Z,94.50
2022-09-22T16:29:47.914Z,94.30
2022-09-22T16:32:36.198Z,95.60
2022-09-22T16:35:24.750Z,95.70
2022-09-22T16:38:12.593Z,95.40
2022-09-22T16:41:01.186Z,95.10
2022-09-22T16:43:50.434Z,95.20
2022-09-22T16:46:38.953Z,95.00
2022-09-22T16:49:26.966Z,95.50
2022-09-22T16:52:15.188Z,96.10
2022-09-22T16:55:03.674Z,96.10
2022-09-22T16:57:51.429Z,96.30
2022-09-22T17:00:40.617Z,96.50
2022-09-22T17:03:28.398Z,96.00
2022-09-22T17:06:17.283Z,96.60
2022-09-22T17:09:05.827Z,96.40
2022-09-22T17:11:53.694Z,97.70
2022-09-22T17:14:43.571Z,97.90
2022-09-22T17:17:32.815Z,98.00
2022-09-22T17:20:22.005Z,98.30
2022-09-22T17:23:09.851Z,97.90
2022-09-22T17:25:58.262Z,98.30
2022-09-22T17:28:46.321Z,97.70
2022-09-22T17:31:35.931Z,97.70
2022-09-22T17:34:25.535Z,97.80
2022-09-22T17:37:14.223Z,97.70
2022-09-22T17:40:02.860Z,97.70
2022-09-22T17:42:52.503Z,97.80
2022-09-22T17:45:40.282Z,97.70
2022-09-22T17:48:45.719Z,98.00
2022-09-22T17:51:53.558Z,97.90
2022-09-22T17:54:59.670Z,98.10
2022-09-22T17:57:47.502Z,98.00
2022-09-22T18:00:35.938Z,98.10
2022-09-22T18:03:23.807Z,98.40
2022-09-22T18:06:14.531Z,98.50
2022-09-22T18:09:03.745Z,98.40
2022-09-22T18:11:51.592Z,98.40
2022-09-22T18:14:41.181Z,98.40
2022-09-22T18:17:31.638Z,98.60
2022-09-22T18:20:20.813Z,99.00
2022-09-22T18:23:08.589Z,98.90
2022-09-22T18:26:01.866Z,99.00
2022-09-22T18:28:50.663Z,99.20
2022-09-22T18:31:38.862Z,99.20
2022-09-22T18:34:31.065Z,99.10
2022-09-22T18:37:20.461Z,99.20
2022-09-22T18:40:09.108Z,99.90
2022-09-22T18:42:58.365Z,99.90
2022-09-22T18:45:46.183Z,99.90
2022-09-22T18:48:33.958Z,99.90
2022-09-22T18:51:21.777Z,99.90
2022-09-22T18:54:15.284Z,99.90
2022-09-22T18:57:04.249Z,99.90
2022-09-22T18:59:54.106Z,99.90
2022-09-22T19:02:42.002Z,99.90
2022-09-22T19:05:29.890Z,99.90
2022-09-22T19:08:17.673Z,99.90
2022-09-22T19:11:05.600Z,99.90
2022-09-22T19:13:53.695Z,99.90
2022-09-22T19:16:42.902Z,99.90
2022-09-22T19:19:31.616Z,99.90
2022-09-22T19:22:19.839Z,99.90
2022-09-22T19:25:08.068Z,99.90
2022-09-22T19:27:56.329Z,99.90
2022-09-22T19:30:44.203Z,99.90
2022-09-22T19:33:33.394Z,99.90
2022-09-22T19:36:21.364Z,99.90
2022-09-22T19:39:09.648Z,99.90
2022-09-22T19:41:57.428Z,99.90
2022-09-22T19:44:45.270Z,99.90
2022-09-22T19:47:33.081Z,99.90
2022-09-22T19:50:22.441Z,99.90
2022-09-22T19:53:10.251Z,99.90
2022-09-22T19:55:58.211Z,99.90
2022-09-22T19:58:46.087Z,99.90
2022-09-22T20:01:35.468Z,99.90
2022-09-22T20:04:23.504Z,99.90
2022-09-22T20:07:12.672Z,99.90
2022-09-22T20:10:02.212Z,99.90
2022-09-22T20:12:50.665Z,99.90
2022-09-22T20:15:39.422Z,99.90
2022-09-22T20:18:27.205Z,99.90
2022-09-22T20:21:15.515Z,99.90
2022-09-22T20:24:05.169Z,99.90
2022-09-22T20:26:53.850Z,99.90
2022-09-22T20:29:41.740Z,99.90
2022-09-22T20:32:31.421Z,99.90
2022-09-22T20:35:21.934Z,99.90
2022-09-22T20:38:11.876Z,99.90
2022-09-22T20:41:02.819Z,99.90
2022-09-22T20:43:50.953Z,99.90
2022-09-22T20:46:39.129Z,99.90
2022-09-22T20:49:27.271Z,99.90
2022-09-22T20:52:16.114Z,99.90
2022-09-22T20:55:04.040Z,99.90
2022-09-22T20:57:53.711Z,99.90
2022-09-22T21:00:41.545Z,99.90
2022-09-22T21:03:29.766Z,99.90
2022-09-22T21:06:18.241Z,99.90
2022-09-22T21:09:23.635Z,99.90
2022-09-22T21:12:13.502Z,99.90
2022-09-22T21:15:02.881Z,99.90
2022-09-22T21:17:52.190Z,99.90
2022-09-22T21:20:41.049Z,99.90
2022-09-22T21:23:28.850Z,99.90
2022-09-22T21:26:17.260Z,99.90
2022-09-22T21:29:05.153Z,99.90
2022-09-22T21:31:54.335Z,99.90
2022-09-22T21:34:42.893Z,99.90
2022-09-22T21:37:31.333Z,99.90
2022-09-22T21:40:19.249Z,99.90
2022-09-22T21:43:07.188Z,99.90
2022-09-22T21:46:02.913Z,99.90
2022-09-22T21:48:59.105Z,99.90
2022-09-22T21:51:47.361Z,99.90
2022-09-22T21:54:35.304Z,99.90
2022-09-22T21:57:23.315Z,99.90
2022-09-22T22:00:11.746Z,99.90
2022-09-22T22:03:17.138Z,99.90
2022-09-22T22:06:08.256Z,99.90
2022-09-22T22:09:00.499Z,99.90
2022-09-22T22:11:49.557Z,99.90
2022-09-22T22:14:37.479Z,99.90
2022-09-22T22:17:25.452Z,99.90
2022-09-22T22:20:13.341Z,99.90
2022-09-22T22:23:02.534Z,99.90
2022-09-22T22:25:55.872Z,99.90
2022-09-22T22:28:44.310Z,99.90
2022-09-22T22:31:32.194Z,99.90
2022-09-22T22:34:20.908Z,99.90
2022-09-22T22:37:10.127Z,99.90
2022-09-22T22:40:00.129Z,99.90
2022-09-22T22:42:49.155Z,99.90
2022-09-22T22:45:37.006Z,99.90
2022-09-22T22:48:24.847Z,99.90
2022-09-22T22:51:15.719Z,99.90
2022-09-22T22:54:03.711Z,99.90
2022-09-22T22:56:53.051Z,99.90
2022-09-22T22:59:41.105Z,99.90
2022-09-22T23:02:30.952Z,99.90
2022-09-22T23:05:18.874Z,99.90
2022-09-22T23:08:06.660Z,99.90
2022-09-22T23:11:02.596Z,99.90
2022-09-22T23:13:53.634Z,99.90
2022-09-22T23:16:43.444Z,99.90
2022-09-22T23:19:31.323Z,99.90
2022-09-22T23:22:19.449Z,99.90
2022-09-22T23:25:07.600Z,99.90
2022-09-22T23:27:55.439Z,99.90
2022-09-22T23:30:44.947Z,99.90
2022-09-22T23:33:33.084Z,99.90
2022-09-22T23:36:23.062Z,99.90
2022-09-22T23:39:12.244Z,99.90
2022-09-22T23:42:00.370Z,99.90
2022-09-22T23:44:48.191Z,99.90
2022-09-22T23:47:37.506Z,99.90
2022-09-22T23:50:25.381Z,99.90
2022-09-22T23:53:13.288Z,99.90
2022-09-22T23:56:02.423Z,99.90
2022-09-22T23:58:51.300Z,99.90
